createdAt,value
2023-04-28T00:01:50.552Z,11.47
2023-04-28T00:04:19.767Z,11.48
2023-04-28T00:06:48.760Z,11.47
2023-04-28T00:09:17.268Z,11.48
2023-04-28T00:11:47.444Z,11.48
2023-04-28T00:14:16.194Z,11.49
2023-04-28T00:16:44.996Z,11.49
2023-04-28T00:19:13.532Z,11.52
2023-04-28T00:21:42.004Z,11.52
2023-04-28T00:24:10.605Z,11.54
2023-04-28T00:26:39.192Z,11.55
2023-04-28T00:29:09.091Z,11.56
2023-04-28T00:31:37.642Z,11.58
2023-04-28T00:34:06.227Z,11.58
2023-04-28T00:36:35.950Z,11.59
2023-04-28T00:39:04.500Z,11.60
2023-04-28T00:41:33.068Z,11.61
2023-04-28T00:44:01.732Z,11.62
2023-04-28T00:46:33.242Z,11.63
2023-04-28T00:49:01.872Z,11.64
2023-04-28T00:51:30.746Z,11.66
2023-04-28T00:53:59.375Z,11.65
2023-04-28T00:56:31.145Z,11.66
2023-04-28T00:58:59.917Z,11.66
2023-04-28T01:01:28.805Z,11.65
2023-04-28T01:03:59.154Z,11.63
2023-04-28T01:06:29.802Z,11.63
2023-04-28T01:09:00.427Z,11.63
2023-04-28T01:11:28.988Z,11.62
2023-04-28T01:14:09.083Z,11.62
2023-04-28T01:16:40.478Z,11.63
2023-04-28T01:19:16.302Z,11.62
2023-04-28T01:21:44.982Z,11.62
2023-04-28T01:24:24.045Z,11.62
2023-04-28T01:26:52.567Z,11.61
2023-04-28T01:29:21.051Z,11.61
2023-04-28T01:31:49.617Z,11.60
2023-04-28T01:34:19.070Z,11.58
2023-04-28T01:36:52.604Z,11.57
2023-04-28T01:39:21.149Z,11.55
2023-04-28T01:41:51.084Z,11.54
2023-04-28T01:44:19.843Z,11.53
2023-04-28T01:46:50.413Z,11.52
2023-04-28T01:49:19.089Z,11.51
2023-04-28T01:51:56.749Z,11.48
2023-04-28T01:54:43.483Z,11.47
2023-04-28T01:57:33.485Z,11.44
2023-04-28T02:00:02.116Z,11.44
2023-04-28T02:02:31.631Z,11.43
2023-04-28T02:05:00.198Z,11.42
2023-04-28T02:07:28.863Z,11.41
2023-04-28T02:09:57.377Z,11.40
2023-04-28T02:12:25.910Z,11.38
2023-04-28T02:14:56.192Z,11.36
2023-04-28T02:17:24.706Z,11.35
2023-04-28T02:19:56.817Z,11.33
2023-04-28T02:22:25.789Z,11.33
2023-04-28T02:24:54.346Z,11.31
2023-04-28T02:27:22.934Z,11.31
2023-04-28T02:29:51.758Z,11.30
2023-04-28T02:32:21.841Z,11.28
2023-04-28T02:34:54.833Z,11.27
2023-04-28T02:37:24.995Z,11.26
2023-04-28T02:39:53.697Z,11.25
2023-04-28T02:42:24.061Z,11.24
2023-04-28T02:44:52.626Z,11.23
2023-04-28T02:47:22.516Z,11.23
2023-04-28T02:49:51.276Z,11.22
2023-04-28T02:52:20.065Z,11.21
2023-04-28T02:54:49.261Z,11.19
2023-04-28T02:57:19.180Z,11.19
2023-04-28T02:59:47.788Z,11.18
2023-04-28T03:02:16.578Z,11.17
2023-04-28T03:04:46.722Z,11.16
2023-04-28T03:07:15.460Z,11.14
2023-04-28T03:09:46.323Z,11.14
2023-04-28T03:12:14.908Z,11.13
2023-04-28T03:14:43.396Z,11.11
2023-04-28T03:17:14.439Z,11.10
2023-04-28T03:19:43.229Z,11.11
2023-04-28T03:22:13.399Z,11.10
2023-04-28T03:24:41.958Z,11.07
2023-04-28T03:27:10.815Z,11.07
2023-04-28T03:29:39.300Z,11.05
2023-04-28T03:32:08.256Z,11.04
2023-04-28T03:34:36.889Z,11.02
2023-04-28T03:37:05.842Z,11.02
2023-04-28T03:39:36.331Z,11.01
2023-04-28T03:42:05.353Z,10.99
2023-04-28T03:45:05.873Z,10.98
2023-04-28T03:47:34.603Z,10.97
2023-04-28T03:50:03.561Z,10.97
2023-04-28T03:52:32.454Z,10.97
2023-04-28T03:55:02.389Z,10.96
2023-04-28T03:57:31.629Z,10.94
2023-04-28T04:00:00.154Z,10.94
2023-04-28T04:02:31.969Z,10.95
2023-04-28T04:05:01.687Z,10.94
2023-04-28T04:07:30.739Z,10.94
2023-04-28T04:09:59.190Z,10.94
2023-04-28T04:12:29.033Z,10.94
2023-04-28T04:14:57.588Z,10.93
2023-04-28T04:17:26.605Z,10.91
2023-04-28T04:19:55.498Z,10.91
2023-04-28T04:22:24.183Z,10.90
2023-04-28T04:24:52.694Z,10.89
2023-04-28T04:27:21.209Z,10.89
2023-04-28T04:29:51.037Z,10.89
2023-04-28T04:32:19.883Z,10.89
2023-04-28T04:34:48.466Z,10.89
2023-04-28T04:37:17.635Z,10.90
2023-04-28T04:40:03.631Z,10.89
2023-04-28T04:42:38.336Z,10.90
2023-04-28T04:45:11.449Z,10.90
2023-04-28T04:47:41.509Z,10.91
2023-04-28T04:50:12.223Z,10.91
2023-04-28T04:52:41.811Z,10.92
2023-04-28T04:55:11.494Z,10.92
2023-04-28T04:57:42.776Z,10.92
2023-04-28T05:00:21.539Z,10.92
2023-04-28T05:02:50.871Z,10.94
2023-04-28T05:05:21.671Z,10.96
2023-04-28T05:08:08.246Z,10.96
2023-04-28T05:10:37.347Z,10.97
2023-04-28T05:13:06.354Z,10.98
2023-04-28T05:15:36.846Z,10.99
2023-04-28T05:18:31.627Z,11.01
2023-04-28T05:21:01.686Z,11.01
2023-04-28T05:23:30.474Z,11.02
2023-04-28T05:25:59.862Z,11.04
2023-04-28T05:28:28.435Z,11.06
2023-04-28T05:30:59.451Z,11.07
2023-04-28T05:33:27.978Z,11.07
2023-04-28T05:35:56.712Z,11.10
2023-04-28T05:38:26.104Z,11.13
2023-04-28T05:40:55.866Z,11.15
2023-04-28T05:43:24.588Z,11.17
2023-04-28T05:45:53.913Z,11.18
2023-04-28T05:48:24.867Z,11.19
2023-04-28T05:50:53.654Z,11.20
2023-04-28T05:53:23.738Z,11.22
2023-04-28T05:55:53.440Z,11.23
2023-04-28T05:58:22.686Z,11.26
2023-04-28T06:00:51.516Z,11.28
2023-04-28T06:03:20.412Z,11.30
2023-04-28T06:05:52.244Z,11.32
2023-04-28T06:08:21.249Z,11.36
2023-04-28T06:10:49.977Z,11.39
2023-04-28T06:13:18.475Z,11.41
2023-04-28T06:15:47.210Z,11.46
2023-04-28T06:18:16.815Z,11.51
2023-04-28T06:20:45.405Z,11.55
2023-04-28T06:23:15.521Z,11.60
2023-04-28T06:25:48.876Z,11.65
2023-04-28T06:28:17.517Z,11.67
2023-04-28T06:30:47.152Z,11.72
2023-04-28T06:33:15.904Z,11.78
2023-04-28T06:35:44.932Z,11.83
2023-04-28T06:38:15.479Z,11.89
2023-04-28T06:40:45.705Z,11.93
2023-04-28T06:43:14.496Z,11.98
2023-04-28T06:45:51.431Z,12.03
2023-04-28T06:48:20.304Z,12.09
2023-04-28T06:50:49.084Z,12.17
2023-04-28T06:53:19.057Z,12.23
2023-04-28T06:55:47.662Z,12.26
2023-04-28T06:58:16.939Z,12.30
2023-04-28T07:00:45.905Z,12.34
2023-04-28T07:03:14.636Z,12.36
2023-04-28T07:05:43.304Z,12.39
2023-04-28T07:08:12.437Z,12.41
2023-04-28T07:10:43.195Z,12.44
2023-04-28T07:13:12.485Z,12.48
2023-04-28T07:15:41.327Z,12.53
2023-04-28T07:18:10.453Z,12.56
2023-04-28T07:20:39.171Z,12.61
2023-04-28T07:23:08.323Z,12.65
2023-04-28T07:25:37.072Z,12.69
2023-04-28T07:28:07.438Z,12.74
2023-04-28T07:30:36.272Z,12.78
2023-04-28T07:33:05.070Z,12.82
2023-04-28T07:35:33.687Z,12.84
2023-04-28T07:38:03.903Z,12.88
2023-04-28T07:40:32.309Z,12.92
2023-04-28T07:43:00.918Z,12.96
2023-04-28T07:45:31.102Z,12.97
2023-04-28T07:48:00.047Z,12.97
2023-04-28T07:50:28.953Z,12.97
2023-04-28T07:52:58.237Z,12.96
2023-04-28T07:55:26.904Z,12.95
2023-04-28T07:57:57.176Z,12.96
2023-04-28T08:00:25.698Z,12.98
2023-04-28T08:02:57.009Z,12.99
2023-04-28T08:05:25.932Z,12.99
2023-04-28T08:07:54.705Z,13.02
2023-04-28T08:10:23.256Z,13.03
2023-04-28T08:12:51.905Z,13.06
2023-04-28T08:15:20.672Z,13.09
2023-04-28T08:17:49.232Z,13.13
2023-04-28T08:20:22.250Z,13.17
2023-04-28T08:22:52.597Z,13.22
2023-04-28T08:25:21.661Z,13.24
2023-04-28T08:27:49.996Z,13.24
2023-04-28T08:30:18.465Z,13.25
2023-04-28T08:32:47.763Z,13.26
2023-04-28T08:35:16.446Z,13.29
2023-04-28T08:37:46.573Z,13.30
2023-04-28T08:40:15.148Z,13.35
2023-04-28T08:42:45.907Z,13.40
2023-04-28T08:45:15.301Z,13.44
2023-04-28T08:47:46.207Z,13.49
2023-04-28T08:50:15.542Z,13.52
2023-04-28T08:52:44.133Z,13.59
2023-04-28T08:55:14.369Z,13.65
2023-04-28T08:57:45.315Z,13.75
2023-04-28T09:00:14.596Z,13.82
2023-04-28T09:02:43.642Z,13.88
2023-04-28T09:05:15.146Z,13.94
2023-04-28T09:07:47.971Z,13.97
2023-04-28T09:10:19.991Z,14.01
2023-04-28T09:12:49.974Z,14.02
2023-04-28T09:15:30.605Z,14.02
2023-04-28T09:18:00.577Z,14.03
2023-04-28T09:20:31.499Z,14.00
2023-04-28T09:23:14.986Z,14.00
2023-04-28T09:25:59.730Z,13.99
2023-04-28T09:28:29.441Z,13.98
2023-04-28T09:30:58.106Z,13.99
2023-04-28T09:33:27.020Z,13.99
2023-04-28T09:35:55.680Z,14.01
2023-04-28T09:38:24.763Z,14.00
2023-04-28T09:40:55.519Z,13.99
2023-04-28T09:43:33.519Z,13.99
2023-04-28T09:46:03.860Z,13.97
2023-04-28T09:48:34.269Z,13.96
2023-04-28T09:51:04.325Z,13.95
2023-04-28T09:53:33.403Z,13.96
2023-04-28T09:56:03.652Z,13.98
2023-04-28T09:58:36.056Z,13.98
2023-04-28T10:01:06.892Z,13.98
2023-04-28T10:03:36.845Z,13.98
2023-04-28T10:06:06.947Z,13.97
2023-04-28T10:08:36.003Z,13.97
2023-04-28T10:11:05.083Z,13.98
2023-04-28T10:13:37.050Z,13.98
2023-04-28T10:16:06.541Z,13.99
2023-04-28T10:18:36.523Z,14.00
2023-04-28T10:21:07.492Z,14.00
2023-04-28T10:24:01.168Z,14.02
2023-04-28T10:26:59.140Z,14.02
2023-04-28T10:29:33.408Z,14.04
2023-04-28T10:32:22.259Z,14.03
2023-04-28T10:34:51.617Z,14.05
2023-04-28T10:37:20.455Z,14.06
2023-04-28T10:40:26.368Z,14.10
2023-04-28T10:42:56.699Z,14.12
2023-04-28T10:46:03.052Z,14.14
2023-04-28T10:49:08.261Z,14.16
2023-04-28T10:51:38.389Z,14.17
2023-04-28T10:54:11.153Z,14.19
2023-04-28T10:56:41.848Z,14.20
2023-04-28T10:59:31.341Z,14.21
2023-04-28T11:02:30.019Z,14.23
2023-04-28T11:05:20.827Z,14.24
2023-04-28T11:08:36.389Z,14.26
2023-04-28T11:11:22.645Z,14.26
2023-04-28T11:13:51.607Z,14.28
2023-04-28T11:16:23.173Z,14.31
2023-04-28T11:18:55.839Z,14.32
2023-04-28T11:21:25.984Z,14.33
2023-04-28T11:23:56.395Z,14.33
2023-04-28T11:26:24.969Z,14.35
2023-04-28T11:28:55.220Z,14.35
2023-04-28T11:31:24.589Z,14.37
2023-04-28T11:33:56.813Z,14.39
2023-04-28T11:36:30.353Z,14.43
2023-04-28T11:39:00.966Z,14.45
2023-04-28T11:41:29.798Z,14.46
2023-04-28T11:43:58.881Z,14.48
2023-04-28T11:46:28.568Z,14.49
2023-04-28T11:49:05.654Z,14.49
2023-04-28T11:51:38.860Z,14.49
2023-04-28T11:54:11.843Z,14.49
2023-04-28T11:56:43.309Z,14.51
2023-04-28T11:59:15.807Z,14.55
2023-04-28T12:01:49.255Z,14.60
2023-04-28T12:04:29.510Z,14.64
2023-04-28T12:07:06.446Z,14.70
2023-04-28T12:09:36.897Z,14.72
2023-04-28T12:12:07.361Z,14.77
2023-04-28T12:14:57.579Z,14.84
2023-04-28T12:17:27.555Z,14.89
2023-04-28T12:19:56.601Z,14.97
2023-04-28T12:22:26.348Z,15.04
2023-04-28T12:25:08.273Z,15.11
2023-04-28T12:27:39.300Z,15.18
2023-04-28T12:30:26.201Z,15.29
2023-04-28T12:32:56.366Z,15.39
2023-04-28T12:35:26.371Z,15.52
2023-04-28T12:37:56.586Z,15.68
2023-04-28T12:40:28.486Z,15.84
2023-04-28T12:42:57.652Z,15.97
2023-04-28T12:45:26.549Z,16.08
2023-04-28T12:47:55.465Z,16.23
2023-04-28T12:50:25.867Z,16.35
2023-04-28T12:52:54.736Z,16.49
2023-04-28T12:55:24.193Z,16.55
2023-04-28T12:57:54.943Z,16.60
2023-04-28T13:00:25.190Z,16.66
2023-04-28T13:02:54.066Z,16.70
2023-04-28T13:05:22.977Z,16.75
2023-04-28T13:07:52.496Z,16.78
2023-04-28T13:10:22.362Z,16.86
2023-04-28T13:12:50.751Z,16.95
2023-04-28T13:15:20.908Z,17.07
2023-04-28T13:17:49.868Z,17.19
2023-04-28T13:20:18.563Z,17.37
2023-04-28T13:22:47.342Z,17.56
2023-04-28T13:25:16.248Z,17.72
2023-04-28T13:27:44.709Z,17.87
2023-04-28T13:30:14.484Z,18.05
2023-04-28T13:32:44.564Z,18.20
2023-04-28T13:35:13.229Z,18.37
2023-04-28T13:37:45.812Z,18.58
2023-04-28T13:40:14.584Z,18.82
2023-04-28T13:42:43.170Z,18.95
2023-04-28T13:45:16.219Z,19.10
2023-04-28T13:47:50.263Z,19.26
2023-04-28T13:50:18.876Z,19.41
2023-04-28T13:52:48.783Z,19.53
2023-04-28T13:55:17.260Z,19.66
2023-04-28T13:57:45.743Z,19.71
2023-04-28T14:00:15.452Z,19.73
2023-04-28T14:02:44.838Z,19.72
2023-04-28T14:05:15.045Z,19.69
2023-04-28T14:07:43.939Z,19.58
2023-04-28T14:10:12.663Z,19.46
2023-04-28T14:12:41.089Z,19.39
2023-04-28T14:15:10.068Z,19.38
2023-04-28T14:17:39.045Z,19.47
2023-04-28T14:20:11.514Z,19.59
2023-04-28T14:22:41.982Z,19.80
2023-04-28T14:25:11.841Z,19.91
2023-04-28T14:27:40.686Z,19.91
2023-04-28T14:30:12.843Z,19.91
2023-04-28T14:32:41.532Z,19.84
2023-04-28T14:35:13.558Z,19.76
2023-04-28T14:37:44.354Z,19.69
2023-04-28T14:40:13.247Z,19.69
2023-04-28T14:42:41.796Z,19.76
2023-04-28T14:45:11.835Z,19.82
2023-04-28T14:47:42.195Z,19.84
2023-04-28T14:50:13.189Z,19.85
2023-04-28T14:52:44.111Z,19.79
2023-04-28T14:55:13.675Z,19.70
2023-04-28T14:57:42.690Z,19.59
2023-04-28T15:00:12.309Z,19.52
2023-04-28T15:02:41.041Z,19.44
2023-04-28T15:05:11.396Z,19.37
2023-04-28T15:07:40.096Z,19.27
2023-04-28T15:10:10.479Z,19.16
2023-04-28T15:12:38.912Z,19.10
2023-04-28T15:15:08.488Z,18.99
2023-04-28T15:17:36.927Z,18.89
2023-04-28T15:20:06.447Z,18.81
2023-04-28T15:22:36.513Z,18.73
2023-04-28T15:25:05.932Z,18.65
2023-04-28T15:27:36.523Z,18.56
2023-04-28T15:30:06.635Z,18.49
2023-04-28T15:32:35.353Z,18.41
2023-04-28T15:35:04.112Z,18.33
2023-04-28T15:37:43.860Z,18.19
2023-04-28T15:40:14.661Z,18.04
2023-04-28T15:42:49.110Z,17.91
2023-04-28T15:45:18.889Z,17.83
2023-04-28T15:47:49.457Z,17.75
2023-04-28T15:50:19.749Z,17.63
2023-04-28T15:52:50.230Z,17.52
2023-04-28T15:55:20.279Z,17.43
2023-04-28T15:57:51.131Z,17.35
2023-04-28T16:00:19.770Z,17.26
2023-04-28T16:02:48.651Z,17.16
2023-04-28T16:05:17.694Z,17.06
2023-04-28T16:07:46.354Z,16.98
2023-04-28T16:10:16.713Z,16.95
2023-04-28T16:12:45.749Z,16.93
2023-04-28T16:15:15.870Z,16.91
2023-04-28T16:17:44.749Z,16.87
2023-04-28T16:20:13.561Z,16.85
2023-04-28T16:22:43.284Z,16.81
2023-04-28T16:25:12.471Z,16.82
2023-04-28T16:27:41.741Z,16.79
2023-04-28T16:30:11.032Z,16.79
2023-04-28T16:32:41.126Z,16.75
2023-04-28T16:35:15.139Z,16.72
2023-04-28T16:37:44.473Z,16.67
2023-04-28T16:40:13.928Z,16.61
2023-04-28T16:42:43.693Z,16.60
2023-04-28T16:45:13.057Z,16.59
2023-04-28T16:47:44.031Z,16.59
2023-04-28T16:50:14.804Z,16.58
2023-04-28T16:52:43.825Z,16.57
2023-04-28T16:55:12.603Z,16.55
2023-04-28T16:57:41.425Z,16.54
2023-04-28T17:00:12.095Z,16.51
2023-04-28T17:02:42.192Z,16.45
2023-04-28T17:05:11.397Z,16.41
2023-04-28T17:07:40.045Z,16.35
2023-04-28T17:10:09.810Z,16.33
2023-04-28T17:12:39.495Z,16.31
2023-04-28T17:15:09.508Z,16.29
2023-04-28T17:17:38.206Z,16.26
2023-04-28T17:20:10.467Z,16.20
2023-04-28T17:22:39.424Z,16.16
2023-04-28T17:25:09.879Z,16.12
2023-04-28T17:27:38.534Z,16.10
2023-04-28T17:30:10.919Z,16.07
2023-04-28T17:32:39.610Z,16.01
2023-04-28T17:35:10.576Z,15.98
2023-04-28T17:37:39.206Z,15.97
2023-04-28T17:40:09.166Z,15.95
2023-04-28T17:42:37.757Z,15.92
2023-04-28T17:45:07.482Z,15.89
2023-04-28T17:47:36.365Z,15.83
2023-04-28T17:50:06.559Z,15.80
2023-04-28T17:52:37.799Z,15.72
2023-04-28T17:55:07.594Z,15.66
2023-04-28T17:57:36.989Z,15.63
2023-04-28T18:00:12.154Z,15.60
2023-04-28T18:02:41.509Z,15.57
2023-04-28T18:05:11.278Z,15.53
2023-04-28T18:07:41.815Z,15.50
2023-04-28T18:10:11.545Z,15.49
2023-04-28T18:12:40.266Z,15.46
2023-04-28T18:15:10.949Z,15.44
2023-04-28T18:17:39.871Z,15.38
2023-04-28T18:20:09.913Z,15.36
2023-04-28T18:22:39.349Z,15.34
2023-04-28T18:25:10.979Z,15.31
2023-04-28T18:27:40.161Z,15.28
2023-04-28T18:30:10.313Z,15.26
2023-04-28T18:32:40.738Z,15.23
2023-04-28T18:35:10.487Z,15.21
2023-04-28T18:37:39.778Z,15.18
2023-04-28T18:40:13.308Z,15.15
2023-04-28T18:42:42.598Z,15.12
2023-04-28T18:45:13.045Z,15.07
2023-04-28T18:47:42.091Z,15.06
2023-04-28T18:50:11.760Z,15.04
2023-04-28T18:52:41.092Z,15.01
2023-04-28T18:55:11.929Z,15.02
2023-04-28T18:57:42.587Z,15.01
2023-04-28T19:00:12.079Z,14.99
2023-04-28T19:02:41.313Z,14.99
2023-04-28T19:05:10.646Z,14.97
2023-04-28T19:07:40.469Z,14.93
2023-04-28T19:10:12.481Z,14.90
2023-04-28T19:12:42.671Z,14.88
2023-04-28T19:15:11.957Z,14.89
2023-04-28T19:17:40.994Z,14.91
2023-04-28T19:20:10.744Z,14.88
2023-04-28T19:22:44.023Z,14.87
2023-04-28T19:25:16.066Z,14.87
2023-04-28T19:27:46.830Z,14.86
2023-04-28T19:30:16.841Z,14.85
2023-04-28T19:32:46.814Z,14.84
2023-04-28T19:35:16.645Z,14.83
2023-04-28T19:37:46.236Z,14.84
2023-04-28T19:40:20.189Z,14.81
2023-04-28T19:42:51.904Z,14.81
2023-04-28T19:45:25.524Z,14.81
2023-04-28T19:47:55.623Z,14.78
2023-04-28T19:50:24.496Z,14.76
2023-04-28T19:52:53.345Z,14.75
2023-04-28T19:55:24.144Z,14.75
2023-04-28T19:57:55.919Z,14.75
2023-04-28T20:00:25.640Z,14.75
2023-04-28T20:02:54.709Z,14.73
2023-04-28T20:05:23.621Z,14.72
2023-04-28T20:07:56.166Z,14.70
2023-04-28T20:10:26.645Z,14.70
2023-04-28T20:12:55.404Z,14.67
2023-04-28T20:15:24.306Z,14.68
2023-04-28T20:17:53.416Z,14.67
2023-04-28T20:20:22.347Z,14.67
2023-04-28T20:22:51.777Z,14.66
2023-04-28T20:25:21.122Z,14.63
2023-04-28T20:27:51.202Z,14.60
2023-04-28T20:30:20.115Z,14.57
2023-04-28T20:32:49.400Z,14.55
2023-04-28T20:35:18.113Z,14.53
2023-04-28T20:37:46.764Z,14.51
2023-04-28T20:40:15.504Z,14.49
2023-04-28T20:42:44.028Z,14.50
2023-04-28T20:45:14.011Z,14.49
2023-04-28T20:47:42.593Z,14.49
2023-04-28T20:50:12.415Z,14.48
2023-04-28T20:52:40.982Z,14.48
2023-04-28T20:55:10.588Z,14.48
2023-04-28T20:57:39.167Z,14.46
2023-04-28T21:00:09.145Z,14.43
2023-04-28T21:02:39.268Z,14.43
2023-04-28T21:05:08.660Z,14.40
2023-04-28T21:07:37.192Z,14.36
2023-04-28T21:10:06.770Z,14.31
2023-04-28T21:12:36.105Z,14.26
2023-04-28T21:15:05.009Z,14.20
2023-04-28T21:17:33.552Z,14.13
2023-04-28T21:20:03.503Z,14.08
2023-04-28T21:22:33.558Z,14.01
2023-04-28T21:25:02.200Z,13.96
2023-04-28T21:27:36.946Z,13.91
2023-04-28T21:30:06.415Z,13.88
2023-04-28T21:32:35.012Z,13.83
2023-04-28T21:35:05.282Z,13.80
2023-04-28T21:37:33.914Z,13.76
2023-04-28T21:40:02.707Z,13.70
2023-04-28T21:42:31.989Z,13.67
2023-04-28T21:45:00.502Z,13.65
2023-04-28T21:47:29.335Z,13.63
2023-04-28T21:49:58.035Z,13.62
2023-04-28T21:52:28.048Z,13.56
2023-04-28T21:54:56.748Z,13.54
2023-04-28T21:57:25.285Z,13.50
2023-04-28T21:59:53.864Z,13.46
2023-04-28T22:02:22.922Z,13.45
2023-04-28T22:04:51.739Z,13.42
2023-04-28T22:07:20.305Z,13.39
2023-04-28T22:09:50.465Z,13.38
2023-04-28T22:12:19.065Z,13.36
2023-04-28T22:14:47.612Z,13.36
2023-04-28T22:17:16.402Z,13.35
2023-04-28T22:19:45.322Z,13.34
2023-04-28T22:22:13.785Z,13.32
2023-04-28T22:24:42.339Z,13.31
2023-04-28T22:27:12.170Z,13.30
2023-04-28T22:29:40.639Z,13.28
2023-04-28T22:32:10.212Z,13.27
2023-04-28T22:34:38.794Z,13.26
2023-04-28T22:37:07.366Z,13.25
2023-04-28T22:39:36.505Z,13.22
2023-04-28T22:42:05.069Z,13.21
2023-04-28T22:44:34.862Z,13.20
2023-04-28T22:47:03.525Z,13.17
2023-04-28T22:49:32.270Z,13.14
2023-04-28T22:52:01.058Z,13.13
2023-04-28T22:54:29.689Z,13.10
2023-04-28T22:56:59.230Z,13.08
2023-04-28T22:59:27.891Z,13.05
2023-04-28T23:01:57.798Z,13.03
2023-04-28T23:04:26.979Z,13.00
2023-04-28T23:06:55.588Z,12.98
2023-04-28T23:09:24.199Z,12.96
2023-04-28T23:11:52.726Z,12.94
2023-04-28T23:14:21.296Z,12.92
2023-04-28T23:16:49.989Z,12.89
2023-04-28T23:19:20.723Z,12.89
2023-04-28T23:21:49.567Z,12.83
2023-04-28T23:24:18.161Z,12.81
2023-04-28T23:26:47.012Z,12.78
2023-04-28T23:29:15.597Z,12.73
2023-04-28T23:31:52.121Z,12.70
2023-04-28T23:34:22.591Z,12.65
2023-04-28T23:36:51.704Z,12.61
2023-04-28T23:39:20.197Z,12.57
2023-04-28T23:41:48.768Z,12.54
2023-04-28T23:44:17.344Z,12.51
2023-04-28T23:46:45.919Z,12.51
2023-04-28T23:49:16.082Z,12.49
2023-04-28T23:51:46.085Z,12.47
2023-04-28T23:54:14.633Z,12.45
2023-04-28T23:56:43.195Z,12.42
2023-04-28T23:59:11.712Z,12.42
